Terminal Aerodrome Forecast
Issued by NWS Shreveport, LA

Home | Current Version | Previous Version | Text Only | Print | Product List | Glossary On
Versions: 1 2 3 4 5 6 7 8 9 10 11 12 13 14 15 16 17 18
000
FTUS44 KSHV 222300 RRA
TAFTYR
TAF
KTYR 222346Z 2300/2324 13006KT 6SM -SHRA BKN019 BKN025 OVC035
      TEMPO 2300/2302 5SM -SHRA BR BKN019 OVC035
     FM230200 13008KT 3SM -TSRA BR BKN008CB OVC015
     FM230900 15007KT 2SM -TSRA BR OVC004CB
     FM231000 15007KT 2SM -SHRA BR OVC006
     FM231600 21011KT P6SM SCT015
     FM231800 22016G23KT P6SM SCT035=

USA.gov is the U.S. government's official web portal to all federal, state and local government web resources and services.